Time;durP1;ratioP1;P1;durP2;ratioP2;P2;SDS_P1;SDS_P2;PMS_P1;PMS_P2;Temp;Humidity;BMP_temperature;BMP_pressure;BME280_temperature;BME280_humidity;BME280_pressure;Samples;Min_cycle;Max_cycle;Signal;HPM_P1;HPM_P2
2021/09/14 00:00:57;;;;;;;13.05;8.18;;;21.70;73.00;;;;;;5050965;28;20125;-75
2021/09/14 00:03:23;;;;;;;9.93;8.23;;;21.70;73.20;;;;;;5052190;28;20029;-75
2021/09/14 00:05:49;;;;;;;10.30;7.55;;;21.70;73.40;;;;;;5051960;28;20021;-75
2021/09/14 00:08:14;;;;;;;12.02;8.48;;;21.70;73.30;;;;;;5052190;28;20108;-74
2021/09/14 00:10:40;;;;;;;13.60;8.20;;;21.70;73.50;;;;;;5050387;28;20013;-75
2021/09/14 00:13:07;;;;;;;9.27;7.85;;;21.70;73.50;;;;;;5053020;28;20032;-75
2021/09/14 00:15:33;;;;;;;10.57;7.78;;;21.60;73.60;;;;;;5050569;28;20036;-75
2021/09/14 00:17:59;;;;;;;10.52;8.43;;;21.60;73.50;;;;;;5051779;28;20039;-75
2021/09/14 00:20:24;;;;;;;11.80;7.93;;;21.60;73.70;;;;;;5051569;28;20108;-75
2021/09/14 00:22:50;;;;;;;11.10;8.68;;;21.60;73.80;;;;;;5051660;28;20033;-75
2021/09/14 00:25:16;;;;;;;14.57;9.48;;;21.60;73.80;;;;;;5051868;28;20033;-75
2021/09/14 00:27:42;;;;;;;14.20;8.45;;;21.60;73.80;;;;;;5051503;28;20112;-75
2021/09/14 00:30:08;;;;;;;10.77;8.15;;;21.60;73.80;;;;;;5049738;28;20045;-75
2021/09/14 00:32:34;;;;;;;13.10;7.90;;;21.60;73.90;;;;;;5051341;28;20032;-75
2021/09/14 00:34:59;;;;;;;11.32;8.02;;;21.60;73.90;;;;;;5035549;28;20436;-75
2021/09/14 00:37:25;;;;;;;13.65;9.95;;;21.60;74.10;;;;;;5031814;28;20028;-74
2021/09/14 00:39:51;;;;;;;15.57;8.35;;;21.60;73.90;;;;;;5043101;28;20024;-75
2021/09/14 00:42:16;;;;;;;16.48;8.40;;;21.60;74.00;;;;;;5051665;28;20052;-75
2021/09/14 00:44:42;;;;;;;21.50;8.52;;;21.60;74.30;;;;;;5051574;28;20501;-75
2021/09/14 00:47:08;;;;;;;12.07;8.30;;;21.50;74.20;;;;;;5051648;28;20596;-75
2021/09/14 00:49:34;;;;;;;10.57;8.10;;;21.50;74.30;;;;;;5051507;28;20021;-74
2021/09/14 00:51:59;;;;;;;12.32;9.00;;;21.50;74.40;;;;;;5051155;28;20116;-75
2021/09/14 00:54:27;;;;;;;14.20;9.07;;;21.50;74.40;;;;;;5050804;28;20120;-75
2021/09/14 00:56:56;;;;;;;15.50;8.73;;;21.50;74.40;;;;;;5051328;28;20021;-74
2021/09/14 00:59:22;;;;;;;16.92;9.20;;;21.50;74.40;;;;;;5050202;28;20135;-75
2021/09/14 01:01:48;;;;;;;16.00;9.07;;;21.50;74.50;;;;;;5051375;28;20060;-75
2021/09/14 01:04:14;;;;;;;11.15;8.30;;;21.50;74.50;;;;;;5041386;28;20426;-75
2021/09/14 01:06:40;;;;;;;11.30;8.85;;;21.50;75.50;;;;;;5031401;28;20029;-75
2021/09/14 01:09:06;;;;;;;14.35;9.02;;;21.40;74.70;;;;;;5031404;28;20022;-75
2021/09/14 01:11:32;;;;;;;16.48;9.23;;;21.40;74.90;;;;;;5031373;28;20029;-75
2021/09/14 01:14:03;;;;;;;15.98;9.25;;;21.40;74.90;;;;;;5047144;28;20514;-75
2021/09/14 01:16:33;;;;;;;20.13;8.93;;;21.40;74.70;;;;;;5049924;28;20059;-75
2021/09/14 01:18:59;;;;;;;18.15;9.20;;;21.40;75.70;;;;;;5049701;28;20021;-75
2021/09/14 01:21:26;;;;;;;23.15;9.10;;;21.40;75.00;;;;;;5052671;28;20044;-75
2021/09/14 01:23:51;;;;;;;13.95;9.68;;;21.40;74.80;;;;;;5053741;28;20055;-75
2021/09/14 01:26:18;;;;;;;15.02;8.98;;;21.40;75.00;;;;;;5053383;28;20060;-75
2021/09/14 01:28:43;;;;;;;16.35;9.43;;;21.40;75.10;;;;;;5053045;28;20505;-74
2021/09/14 01:31:09;;;;;;;17.00;9.68;;;21.30;75.10;;;;;;5054849;28;20053;-75
2021/09/14 01:33:35;;;;;;;13.25;9.23;;;21.30;75.40;;;;;;5054415;28;20575;-75
2021/09/14 01:36:00;;;;;;;12.05;8.63;;;21.30;76.80;;;;;;5055406;28;20100;-75
2021/09/14 01:38:26;;;;;;;16.88;9.57;;;21.30;76.00;;;;;;5053722;28;20390;-75
2021/09/14 01:40:53;;;;;;;12.90;9.27;;;21.40;76.70;;;;;;5055054;28;20028;-75
2021/09/14 01:43:19;;;;;;;18.00;10.25;;;21.40;76.70;;;;;;5055053;28;20013;-75
2021/09/14 01:45:45;;;;;;;13.70;9.82;;;21.40;76.70;;;;;;5054863;28;20027;-75
2021/09/14 01:48:11;;;;;;;20.38;10.13;;;21.40;76.40;;;;;;5054823;28;20021;-75
2021/09/14 01:50:37;;;;;;;16.10;10.23;;;21.40;76.50;;;;;;5054809;28;20079;-75
2021/09/14 01:53:03;;;;;;;11.45;8.82;;;21.30;75.60;;;;;;5053226;28;20086;-75
2021/09/14 01:55:30;;;;;;;14.63;9.60;;;21.30;75.70;;;;;;5054713;28;20020;-75
2021/09/14 01:57:56;;;;;;;19.27;9.88;;;21.30;75.80;;;;;;5054741;28;20467;-75
2021/09/14 02:00:47;;;;;;;15.20;9.85;;;21.20;75.80;;;;;;5054524;28;20021;-75
2021/09/14 02:03:25;;;;;;;18.55;9.52;;;21.20;75.90;;;;;;5052905;28;20025;-75
2021/09/14 02:08:48;;;;;;;17.50;9.75;;;21.20;75.80;;;;;;5037506;28;20033;-74
2021/09/14 03:00:25;;;;;;;17.48;10.70;;;21.20;76.30;;;;;;5053382;28;20031;-75
2021/09/14 03:02:50;;;;;;;22.00;12.05;;;21.20;76.30;;;;;;5053383;28;20112;-75
2021/09/14 03:05:16;;;;;;;18.50;10.70;;;21.20;76.30;;;;;;5052055;28;20500;-75
2021/09/14 03:07:42;;;;;;;19.20;11.00;;;21.20;76.60;;;;;;5053457;28;20398;-75
2021/09/14 03:10:08;;;;;;;17.00;11.07;;;21.20;76.60;;;;;;5052912;28;20430;-75
2021/09/14 03:12:34;;;;;;;18.17;11.45;;;21.20;76.70;;;;;;5053265;28;20107;-75
2021/09/14 03:14:59;;;;;;;21.13;11.80;;;21.20;76.90;;;;;;5053189;28;20047;-75
2021/09/14 03:17:25;;;;;;;17.00;10.95;;;21.20;77.10;;;;;;5053102;28;20025;-75
2021/09/14 03:19:51;;;;;;;18.83;11.27;;;21.10;77.10;;;;;;5053035;28;20067;-75
2021/09/14 03:22:16;;;;;;;14.82;10.32;;;21.20;77.10;;;;;;5052957;28;20103;-75
2021/09/14 03:24:42;;;;;;;20.50;11.15;;;21.20;77.20;;;;;;5052844;28;20049;-75
2021/09/14 03:27:08;;;;;;;17.65;11.75;;;21.20;77.10;;;;;;5053032;28;20463;-75
2021/09/14 03:29:34;;;;;;;22.65;11.35;;;21.20;77.20;;;;;;5052540;28;20233;-75
2021/09/14 03:31:59;;;;;;;23.65;10.88;;;21.20;77.20;;;;;;5052810;28;20082;-75
2021/09/14 03:34:25;;;;;;;24.25;11.00;;;21.20;77.30;;;;;;5052765;28;20112;-74
2021/09/14 03:36:51;;;;;;;18.08;10.30;;;21.10;77.30;;;;;;5051415;28;20020;-75
2021/09/14 03:39:16;;;;;;;22.75;11.23;;;21.20;77.60;;;;;;5052582;28;20489;-75
2021/09/14 03:41:42;;;;;;;19.02;11.43;;;21.10;77.80;;;;;;5051516;28;20379;-75
2021/09/14 03:44:08;;;;;;;19.48;10.45;;;21.00;77.80;;;;;;5052316;28;20112;-75
2021/09/14 03:46:33;;;;;;;18.17;12.23;;;21.10;78.20;;;;;;5052662;28;20031;-75
2021/09/14 03:49:00;;;;;;;19.92;11.88;;;21.00;78.40;;;;;;5052371;28;20056;-75
2021/09/14 03:51:25;;;;;;;20.08;12.07;;;21.00;78.60;;;;;;5052346;28;20461;-75
2021/09/14 03:53:51;;;;;;;19.70;11.70;;;21.00;78.90;;;;;;5052276;28;20060;-75
2021/09/14 03:56:17;;;;;;;18.02;11.30;;;20.90;79.00;;;;;;5048470;28;20048;-75
2021/09/14 03:58:42;;;;;;;19.02;11.98;;;20.90;79.20;;;;;;5038933;28;20021;-74
2021/09/14 04:01:08;;;;;;;19.42;12.05;;;20.90;79.20;;;;;;5046499;28;20393;-75
2021/09/14 04:11:14;;;;;;;22.17;12.35;;;20.80;80.20;;;;;;5054730;28;20095;-75
2021/09/14 04:13:40;;;;;;;22.67;12.30;;;20.80;80.30;;;;;;5050799;28;20029;-75
2021/09/14 04:16:06;;;;;;;20.92;11.70;;;20.80;80.70;;;;;;5051906;28;20139;-75
2021/09/14 04:18:32;;;;;;;18.27;11.68;;;20.80;80.80;;;;;;5051979;28;20021;-75
2021/09/14 04:20:58;;;;;;;18.48;12.23;;;20.70;81.20;;;;;;5049241;28;20470;-75
2021/09/14 04:23:23;;;;;;;16.63;11.35;;;20.70;81.40;;;;;;5050203;28;20028;-75
2021/09/14 04:25:49;;;;;;;21.83;12.52;;;20.70;81.40;;;;;;5049968;28;20197;-75
2021/09/14 04:28:15;;;;;;;20.65;11.77;;;20.70;81.60;;;;;;5048914;28;20032;-75
2021/09/14 04:30:40;;;;;;;22.17;12.63;;;20.60;81.80;;;;;;5050108;28;20052;-75
2021/09/14 04:33:08;;;;;;;21.83;12.35;;;20.70;82.00;;;;;;5049659;28;20037;-75
2021/09/14 04:35:34;;;;;;;26.27;12.38;;;20.60;82.20;;;;;;5049640;28;20021;-75
2021/09/14 04:38:00;;;;;;;20.15;12.73;;;20.60;82.40;;;;;;5049862;28;20024;-76
2021/09/14 04:40:26;;;;;;;27.27;12.80;;;20.50;82.60;;;;;;5049559;28;20044;-75
2021/09/14 04:42:52;;;;;;;18.02;12.52;;;20.50;82.50;;;;;;5049645;28;20028;-75
2021/09/14 04:45:18;;;;;;;23.23;13.32;;;20.50;82.60;;;;;;5048558;28;20025;-75
2021/09/14 04:47:43;;;;;;;22.38;12.10;;;20.60;82.70;;;;;;5050335;28;20483;-75
2021/09/14 04:50:09;;;;;;;24.20;12.45;;;20.60;82.80;;;;;;5051291;28;20022;-74
2021/09/14 04:52:35;;;;;;;19.27;12.13;;;20.70;82.20;;;;;;5051468;28;20104;-75
2021/09/14 04:55:01;;;;;;;22.70;12.55;;;20.70;82.20;;;;;;5051091;28;20506;-74
2021/09/14 04:57:27;;;;;;;16.88;12.07;;;20.70;82.20;;;;;;5051221;28;20497;-75
2021/09/14 04:59:52;;;;;;;18.02;12.10;;;20.60;82.30;;;;;;5051431;28;20017;-75
2021/09/14 05:02:18;;;;;;;25.30;13.15;;;20.60;82.40;;;;;;5051323;28;20032;-75
2021/09/14 05:04:44;;;;;;;20.33;12.57;;;20.60;82.70;;;;;;5051283;28;20021;-75
2021/09/14 05:07:10;;;;;;;20.77;11.85;;;20.60;82.70;;;;;;5050088;28;20025;-74
2021/09/14 05:09:36;;;;;;;18.63;11.82;;;20.60;82.90;;;;;;5051416;28;20552;-75
2021/09/14 05:12:01;;;;;;;21.40;11.68;;;20.60;82.90;;;;;;5051352;28;20021;-74
2021/09/14 05:14:27;;;;;;;23.33;12.50;;;20.60;83.00;;;;;;5051354;28;20025;-76
2021/09/14 05:16:53;;;;;;;18.52;11.68;;;20.60;82.90;;;;;;5051173;28;20048;-75
2021/09/14 05:19:30;;;;;;;21.52;12.60;;;20.70;82.80;;;;;;5051115;28;20463;-75
2021/09/14 05:21:58;;;;;;;24.55;12.18;;;20.70;82.90;;;;;;5049892;28;20021;-75
2021/09/14 05:24:24;;;;;;;27.80;12.95;;;20.60;82.60;;;;;;5049970;28;20398;-75
2021/09/14 05:26:50;;;;;;;24.23;11.95;;;20.70;82.60;;;;;;5049827;28;20082;-74
2021/09/14 05:29:16;;;;;;;23.90;12.23;;;20.60;82.70;;;;;;5051003;28;20033;-75
2021/09/14 05:31:41;;;;;;;21.25;11.90;;;20.60;82.90;;;;;;5049664;28;20449;-75
2021/09/14 05:34:07;;;;;;;22.20;12.57;;;20.60;82.80;;;;;;5051116;28;20033;-75
2021/09/14 05:36:33;;;;;;;24.65;12.70;;;20.60;83.00;;;;;;5050912;28;20021;-75
2021/09/14 05:38:59;;;;;;;23.33;13.18;;;20.70;82.90;;;;;;5051138;28;20025;-75
2021/09/14 05:41:25;;;;;;;24.42;12.02;;;20.70;82.50;;;;;;5050942;28;20032;-75
2021/09/14 05:43:50;;;;;;;33.42;12.90;;;20.80;82.20;;;;;;5050954;28;20035;-75
2021/09/14 05:46:16;;;;;;;21.20;12.55;;;20.90;82.10;;;;;;5050913;28;20107;-76
2021/09/14 05:48:42;;;;;;;21.00;12.27;;;20.90;81.90;;;;;;5049563;28;20038;-74
2021/09/14 05:51:07;;;;;;;18.02;11.52;;;21.00;82.00;;;;;;5050932;28;20056;-75
2021/09/14 05:53:34;;;;;;;18.88;11.60;;;21.00;81.80;;;;;;5050904;28;20112;-75
2021/09/14 05:56:00;;;;;;;22.75;11.40;;;21.00;81.50;;;;;;5050833;28;20266;-75
2021/09/14 05:58:26;;;;;;;25.00;11.50;;;21.10;81.70;;;;;;5051914;28;20048;-75
2021/09/14 06:00:52;;;;;;;17.55;12.00;;;21.10;81.70;;;;;;5055113;28;20099;-75
2021/09/14 06:03:17;;;;;;;27.10;12.13;;;21.10;81.80;;;;;;5068281;28;20032;-75
2021/09/14 06:05:43;;;;;;;23.80;12.25;;;21.10;81.20;;;;;;5052043;28;20087;-75
2021/09/14 06:08:09;;;;;;;21.02;12.05;;;21.20;80.90;;;;;;5052565;28;20025;-75
2021/09/14 06:10:34;;;;;;;18.13;11.55;;;21.20;81.10;;;;;;5055623;28;20025;-75
2021/09/14 06:13:00;;;;;;;23.02;11.88;;;21.30;81.10;;;;;;5055399;28;20025;-75
2021/09/14 06:15:26;;;;;;;20.98;12.07;;;21.30;80.90;;;;;;5055587;28;20401;-74
2021/09/14 06:17:52;;;;;;;23.73;11.50;;;21.40;80.80;;;;;;5054035;28;20021;-75
2021/09/14 06:20:17;;;;;;;19.10;11.93;;;21.40;80.90;;;;;;5055096;28;20017;-74
2021/09/14 06:22:43;;;;;;;18.55;10.85;;;21.50;80.70;;;;;;5055290;28;20048;-76
2021/09/14 06:25:09;;;;;;;18.08;11.30;;;21.50;80.60;;;;;;5053969;28;20116;-75
2021/09/14 06:27:35;;;;;;;17.88;11.70;;;21.50;80.70;;;;;;5055035;28;20029;-75
2021/09/14 06:30:01;;;;;;;20.77;11.65;;;21.60;81.30;;;;;;5054218;28;20403;-75
2021/09/14 06:32:26;;;;;;;30.35;11.63;;;21.70;80.70;;;;;;5054000;28;20494;-74
2021/09/14 06:34:52;;;;;;;25.77;11.88;;;21.70;81.30;;;;;;5053021;28;20108;-75
2021/09/14 06:37:18;;;;;;;25.23;12.27;;;21.70;81.10;;;;;;5052634;28;20119;-75
2021/09/14 06:39:43;;;;;;;21.95;12.38;;;21.80;81.00;;;;;;5053816;28;20029;-74
2021/09/14 06:42:09;;;;;;;26.10;11.35;;;21.80;80.90;;;;;;5053723;28;20025;-74
2021/09/14 06:44:35;;;;;;;21.75;12.73;;;21.80;80.90;;;;;;5052469;28;20024;-74
2021/09/14 06:47:01;;;;;;;21.13;11.40;;;21.90;81.20;;;;;;5053744;28;20383;-75
2021/09/14 06:49:29;;;;;;;18.83;9.63;;;21.90;81.50;;;;;;5053987;28;20112;-75
2021/09/14 06:51:56;;;;;;;16.92;10.52;;;21.90;82.00;;;;;;5052367;28;20109;-74
2021/09/14 06:54:22;;;;;;;23.60;11.13;;;21.90;83.30;;;;;;5051893;28;20029;-74
2021/09/14 06:56:47;;;;;;;29.80;11.18;;;22.00;84.80;;;;;;5050250;28;20190;-74
2021/09/14 06:59:13;;;;;;;17.55;10.45;;;22.00;84.60;;;;;;5051479;28;20107;-74
2021/09/14 07:01:39;;;;;;;20.58;11.27;;;22.00;84.70;;;;;;5051697;28;20025;-74
2021/09/14 07:04:05;;;;;;;17.70;11.27;;;22.10;84.60;;;;;;5041542;28;20036;-75
2021/09/14 07:06:30;;;;;;;27.13;10.82;;;22.10;83.20;;;;;;5032264;28;20037;-74
2021/09/14 07:08:56;;;;;;;19.25;10.93;;;22.10;82.40;;;;;;5033399;28;20030;-74
2021/09/14 07:11:22;;;;;;;22.77;10.75;;;22.10;82.20;;;;;;5033249;28;20025;-75
2021/09/14 07:13:48;;;;;;;20.67;10.07;;;22.10;81.00;;;;;;5065097;28;20039;-74
2021/09/14 07:16:13;;;;;;;23.30;9.77;;;22.10;81.10;;;;;;5031855;28;20025;-75
2021/09/14 07:18:41;;;;;;;15.70;9.75;;;22.10;81.90;;;;;;5032626;28;20018;-74
2021/09/14 07:21:07;;;;;;;16.67;9.65;;;22.10;82.30;;;;;;5031790;28;20033;-74
2021/09/14 07:23:32;;;;;;;24.77;10.52;;;22.10;82.30;;;;;;5033096;28;20021;-74
2021/09/14 07:25:58;;;;;;;16.83;10.45;;;22.10;81.80;;;;;;5064854;28;20191;-74
2021/09/14 07:28:26;;;;;;;21.85;10.32;;;22.10;81.30;;;;;;5032987;28;20488;-74
2021/09/14 07:30:58;;;;;;;19.00;10.73;;;22.10;81.40;;;;;;5031666;28;20048;-73
2021/09/14 07:33:24;;;;;;;;;;;22.20;81.50;;;;;;5031641;28;20040;-74
2021/09/14 07:35:50;;;;;;;16.83;10.60;;;22.20;81.30;;;;;;5030277;28;20399;-74
2021/09/14 07:38:16;;;;;;;17.67;10.07;;;22.20;81.00;;;;;;5064562;28;20052;-74
2021/09/14 07:40:42;;;;;;;22.83;9.30;;;22.30;80.90;;;;;;5032595;28;20044;-75
2021/09/14 07:43:08;;;;;;;19.60;9.40;;;22.30;82.00;;;;;;5032526;28;20033;-75
2021/09/14 07:45:34;;;;;;;14.50;9.50;;;22.40;80.80;;;;;;5031418;28;20104;-74
2021/09/14 07:47:59;;;;;;;15.38;9.32;;;22.40;81.30;;;;;;5032416;28;20033;-74
2021/09/14 07:50:25;;;;;;;14.45;9.65;;;22.50;80.50;;;;;;5032642;28;20025;-74
2021/09/14 07:52:51;;;;;;;13.85;10.00;;;22.50;81.60;;;;;;5038459;28;20110;-74
2021/09/14 07:55:17;;;;;;;16.48;10.20;;;22.60;79.10;;;;;;5052425;28;20493;-74
2021/09/14 07:57:43;;;;;;;27.77;10.38;;;22.60;77.00;;;;;;5052139;28;20090;-75
2021/09/14 08:00:09;;;;;;;18.05;10.75;;;22.60;77.30;;;;;;5052036;28;20426;-74
2021/09/14 08:02:36;;;;;;;21.92;9.98;;;22.70;77.20;;;;;;5052139;28;20036;-75
2021/09/14 08:05:02;;;;;;;15.43;10.82;;;22.70;76.80;;;;;;5052060;28;20021;-75
2021/09/14 08:07:28;;;;;;;17.45;9.93;;;22.70;77.10;;;;;;5052260;28;20482;-74
2021/09/14 08:09:53;;;;;;;16.25;9.60;;;22.80;76.90;;;;;;5051942;28;20028;-75
2021/09/14 08:12:19;;;;;;;15.35;10.38;;;22.80;77.80;;;;;;5052067;28;20036;-74
2021/09/14 08:14:45;;;;;;;16.15;10.63;;;23.00;75.70;;;;;;5051874;28;20471;-74
2021/09/14 08:17:15;;;;;;;26.15;10.10;;;23.00;76.70;;;;;;5051879;28;20036;-75
2021/09/14 08:19:42;;;;;;;25.23;10.13;;;23.10;77.30;;;;;;5051947;28;20039;-74
2021/09/14 08:22:11;;;;;;;16.35;10.38;;;23.10;76.30;;;;;;5051733;28;20015;-74
2021/09/14 08:24:37;;;;;;;22.13;10.40;;;23.10;75.70;;;;;;5051707;28;20021;-75
2021/09/14 08:27:03;;;;;;;16.70;9.30;;;23.10;77.10;;;;;;5051822;28;20078;-75
2021/09/14 08:29:29;;;;;;;15.88;9.63;;;23.20;77.50;;;;;;5051494;28;20043;-74
2021/09/14 08:31:56;;;;;;;19.30;10.82;;;23.20;78.10;;;;;;5050633;28;20530;-75
2021/09/14 08:34:22;;;;;;;17.73;11.15;;;23.20;76.50;;;;;;5050279;28;20041;-75
2021/09/14 08:36:48;;;;;;;23.67;10.20;;;23.20;76.80;;;;;;5051464;28;20128;-74
2021/09/14 08:39:13;;;;;;;18.50;10.18;;;23.30;78.50;;;;;;5050282;28;20017;-75
2021/09/14 08:41:39;;;;;;;23.58;10.55;;;23.30;77.50;;;;;;5051444;28;20098;-74
2021/09/14 08:44:05;;;;;;;16.92;9.73;;;23.40;76.10;;;;;;5051591;28;20032;-74
2021/09/14 08:46:31;;;;;;;22.80;10.25;;;23.40;77.20;;;;;;5051499;28;20025;-74
2021/09/14 08:48:58;;;;;;;16.73;9.90;;;23.50;76.60;;;;;;5051884;28;20052;-74
2021/09/14 08:51:24;;;;;;;21.13;10.05;;;23.50;77.10;;;;;;5051949;28;20044;-74
2021/09/14 08:53:49;;;;;;;14.60;9.60;;;23.50;77.70;;;;;;5051363;28;20021;-74
2021/09/14 08:56:15;;;;;;;16.90;8.82;;;23.50;77.80;;;;;;5051637;28;20441;-74
2021/09/14 08:58:41;;;;;;;13.45;9.10;;;23.50;77.80;;;;;;5051495;28;20017;-74
2021/09/14 09:01:14;;;;;;;19.75;8.88;;;23.60;78.10;;;;;;5051383;28;20112;-74
2021/09/14 09:03:40;;;;;;;17.95;8.60;;;23.70;76.50;;;;;;5048350;28;20028;-74
2021/09/14 09:06:07;;;;;;;14.52;9.30;;;23.70;73.30;;;;;;5050817;28;20044;-74
2021/09/14 09:08:33;;;;;;;19.52;10.20;;;23.80;74.90;;;;;;5051234;28;20174;-74
2021/09/14 09:11:12;;;;;;;15.77;10.52;;;23.80;73.70;;;;;;5051121;28;20033;-74
2021/09/14 09:13:44;;;;;;;19.58;10.20;;;23.90;73.00;;;;;;5050885;28;20068;-74
2021/09/14 09:16:19;;;;;;;30.85;9.60;;;23.80;73.50;;;;;;5050799;28;20067;-74
2021/09/14 09:18:58;;;;;;;21.75;9.40;;;23.80;73.80;;;;;;5050631;28;20029;-74
2021/09/14 09:21:36;;;;;;;16.30;9.45;;;24.00;73.60;;;;;;5052196;28;20372;-74
2021/09/14 09:24:12;;;;;;;14.63;9.10;;;24.00;72.60;;;;;;5051759;28;20021;-74
2021/09/14 09:26:41;;;;;;;17.98;9.57;;;24.10;71.20;;;;;;5050710;28;20028;-74
2021/09/14 09:29:10;;;;;;;16.58;10.05;;;24.10;72.70;;;;;;5051575;28;20021;-74
2021/09/14 09:31:42;;;;;;;20.67;10.20;;;24.20;73.90;;;;;;5051544;28;20041;-74
2021/09/14 09:34:09;;;;;;;21.80;11.63;;;24.40;73.00;;;;;;5051814;28;20042;-74
2021/09/14 09:36:41;;;;;;;15.25;9.25;;;24.40;71.60;;;;;;5052035;28;20495;-74
2021/09/14 09:39:09;;;;;;;18.55;10.07;;;24.40;71.80;;;;;;5051889;28;20175;-74
2021/09/14 09:41:38;;;;;;;18.65;8.90;;;24.40;71.60;;;;;;5052401;28;20451;-74
2021/09/14 09:44:13;;;;;;;13.77;9.00;;;24.50;72.50;;;;;;5055925;28;20025;-74
2021/09/14 09:46:39;;;;;;;14.73;8.75;;;24.50;73.70;;;;;;5055913;28;20028;-74
2021/09/14 09:49:07;;;;;;;11.52;8.70;;;24.50;74.10;;;;;;5055599;28;20036;-74
2021/09/14 09:51:35;;;;;;;17.02;8.68;;;24.60;74.60;;;;;;5055950;28;20471;-74
2021/09/14 09:54:02;;;;;;;15.80;8.90;;;24.60;74.30;;;;;;5055743;28;20482;-74
2021/09/14 09:56:30;;;;;;;16.58;9.18;;;24.50;73.50;;;;;;5055763;28;20025;-74
2021/09/14 09:58:56;;;;;;;15.13;8.45;;;24.60;71.80;;;;;;5058023;28;20009;-74
2021/09/14 10:01:27;;;;;;;12.73;9.27;;;24.60;72.10;;;;;;5055288;28;20028;-74
2021/09/14 10:04:01;;;;;;;19.63;8.82;;;24.80;70.50;;;;;;5055449;28;20031;-74
2021/09/14 10:06:31;;;;;;;20.83;8.30;;;25.00;70.60;;;;;;5055631;28;20604;-74
2021/09/14 10:08:58;;;;;;;11.35;8.93;;;25.00;70.60;;;;;;5055326;28;20029;-74
2021/09/14 10:11:28;;;;;;;17.50;8.20;;;25.10;70.00;;;;;;5055459;28;20040;-74
2021/09/14 10:14:14;;;;;;;14.77;8.65;;;25.20;70.00;;;;;;5054883;28;20040;-74
2021/09/14 10:16:46;;;;;;;18.65;9.57;;;25.20;68.80;;;;;;5052491;28;20020;-75
2021/09/14 10:19:15;;;;;;;;;;;25.30;68.70;;;;;;5051362;28;20024;-75
2021/09/14 10:22:02;;;;;;;20.55;9.20;;;25.50;69.10;;;;;;5052160;28;20040;-75
2021/09/14 10:24:29;;;;;;;19.48;10.32;;;25.70;67.00;;;;;;5048735;28;20060;-75
2021/09/14 10:27:13;;;;;;;17.65;9.70;;;25.70;66.20;;;;;;5052572;28;20025;-75
2021/09/14 10:29:41;;;;;;;16.02;8.98;;;25.70;66.00;;;;;;5052282;28;20368;-75
2021/09/14 10:32:14;;;;;;;13.23;8.57;;;25.60;68.30;;;;;;5053848;28;20045;-75
2021/09/14 10:34:54;;;;;;;18.15;9.30;;;25.70;68.00;;;;;;5053915;28;20403;-75
2021/09/14 10:37:21;;;;;;;20.17;10.50;;;25.70;66.50;;;;;;5053956;28;20025;-75
2021/09/14 10:39:46;;;;;;;23.98;10.15;;;25.90;66.10;;;;;;5053624;28;20731;-75
2021/09/14 10:42:12;;;;;;;15.27;9.23;;;25.90;66.40;;;;;;5053772;28;20029;-75
2021/09/14 10:44:38;;;;;;;12.95;8.43;;;25.90;67.30;;;;;;5053700;28;20390;-75
2021/09/14 10:47:05;;;;;;;21.75;9.48;;;26.20;69.00;;;;;;5053883;28;20403;-75
2021/09/14 10:49:51;;;;;;;15.02;8.45;;;26.20;67.60;;;;;;5053647;28;20159;-75
2021/09/14 10:52:30;;;;;;;15.77;8.43;;;26.30;65.90;;;;;;5053797;28;20067;-74
2021/09/14 10:54:56;;;;;;;16.60;9.75;;;26.20;68.30;;;;;;5052822;28;20025;-74
2021/09/14 10:57:32;;;;;;;13.10;8.73;;;26.30;66.70;;;;;;5053507;28;20021;-74
2021/09/14 10:59:58;;;;;;;19.27;9.45;;;26.30;66.60;;;;;;5053429;28;20025;-75
2021/09/14 11:02:25;;;;;;;12.93;9.20;;;26.30;67.80;;;;;;5053390;28;20028;-75
2021/09/14 11:04:51;;;;;;;20.88;8.75;;;26.30;67.30;;;;;;5052103;28;20029;-75
2021/09/14 11:07:17;;;;;;;15.68;8.93;;;26.30;69.10;;;;;;5053266;28;20517;-75
2021/09/14 11:09:44;;;;;;;19.48;9.32;;;26.50;66.60;;;;;;5053035;28;20482;-75
2021/09/14 11:12:24;;;;;;;19.58;10.30;;;26.50;68.50;;;;;;5053145;28;20024;-74
2021/09/14 11:14:52;;;;;;;14.50;9.18;;;26.70;66.30;;;;;;5052984;28;20021;-75
2021/09/14 11:17:36;;;;;;;11.63;9.43;;;26.60;67.70;;;;;;5051812;28;20036;-75
2021/09/14 11:20:14;;;;;;;14.68;8.50;;;26.60;67.00;;;;;;5053018;28;20387;-75
2021/09/14 11:22:42;;;;;;;16.95;8.45;;;26.60;67.30;;;;;;5052982;28;20037;-74
2021/09/14 11:25:16;;;;;;;13.57;8.32;;;26.70;67.70;;;;;;5052909;28;20021;-75
2021/09/14 11:27:58;;;;;;;12.63;9.20;;;26.70;63.80;;;;;;5052755;28;20029;-75
2021/09/14 11:30:25;;;;;;;12.40;8.52;;;26.80;63.00;;;;;;5051423;28;20406;-74
2021/09/14 11:32:55;;;;;;;18.92;9.90;;;26.70;62.30;;;;;;5051399;28;20394;-74
2021/09/14 11:35:22;;;;;;;12.25;8.30;;;26.80;64.90;;;;;;5052707;28;20054;-74
2021/09/14 11:38:09;;;;;;;13.35;9.25;;;26.80;65.50;;;;;;5051185;28;20107;-74
2021/09/14 11:40:47;;;;;;;11.07;8.35;;;26.90;65.20;;;;;;5052501;28;20031;-74
2021/09/14 11:43:30;;;;;;;10.90;8.02;;;26.90;67.50;;;;;;5052398;28;20392;-74
2021/09/14 11:45:57;;;;;;;17.35;7.85;;;27.00;63.00;;;;;;5048303;28;20122;-74
2021/09/14 11:48:30;;;;;;;10.00;8.05;;;27.00;62.50;;;;;;5050768;28;20094;-74
2021/09/14 11:51:06;;;;;;;12.48;8.18;;;27.00;62.70;;;;;;5052063;28;20430;-74
2021/09/14 11:53:32;;;;;;;11.73;8.32;;;27.10;61.90;;;;;;5052260;28;20060;-74
2021/09/14 11:55:58;;;;;;;8.75;6.95;;;27.10;63.80;;;;;;5052153;28;20036;-74
2021/09/14 11:58:28;;;;;;;14.23;6.78;;;27.10;59.90;;;;;;5052359;28;20094;-74
2021/09/14 12:00:57;;;;;;;9.00;7.03;;;27.10;59.30;;;;;;5052231;28;20540;-74
2021/09/14 12:03:44;;;;;;;8.75;7.43;;;27.20;63.60;;;;;;5052091;28;20057;-74
2021/09/14 12:06:12;;;;;;;11.45;7.85;;;27.30;62.40;;;;;;5054591;28;20494;-74
2021/09/14 12:08:42;;;;;;;13.95;7.53;;;27.40;60.90;;;;;;5049742;28;20522;-74
2021/09/14 12:11:09;;;;;;;12.88;7.78;;;27.50;61.10;;;;;;5048663;28;20437;-74
2021/09/14 12:13:40;;;;;;;16.23;7.40;;;27.50;60.50;;;;;;5050789;28;20090;-73
2021/09/14 12:16:10;;;;;;;14.23;7.00;;;27.50;59.10;;;;;;5048447;28;20576;-73
2021/09/14 12:18:37;;;;;;;7.55;6.40;;;27.50;59.60;;;;;;5050707;28;20028;-73
2021/09/14 12:21:04;;;;;;;8.38;6.55;;;27.50;57.70;;;;;;5047863;28;20078;-74
2021/09/14 12:23:31;;;;;;;18.00;7.78;;;27.50;58.20;;;;;;5050888;28;20017;-73
2021/09/14 12:25:57;;;;;;;12.77;7.75;;;27.60;58.10;;;;;;5050980;28;20029;-73
2021/09/14 12:28:23;;;;;;;10.68;7.22;;;27.60;59.00;;;;;;5051207;28;20082;-73
2021/09/14 12:30:48;;;;;;;12.95;7.30;;;27.70;58.60;;;;;;5051103;28;20049;-73
2021/09/14 12:33:16;;;;;;;13.05;7.80;;;27.70;59.40;;;;;;5048510;28;20538;-74
2021/09/14 12:35:43;;;;;;;13.10;8.85;;;27.70;59.90;;;;;;5048781;28;20136;-74
2021/09/14 12:38:09;;;;;;;15.30;7.95;;;27.70;59.10;;;;;;5049110;28;20054;-73
2021/09/14 12:40:35;;;;;;;11.93;7.75;;;27.70;59.20;;;;;;5048920;28;20021;-73
2021/09/14 12:43:00;;;;;;;11.50;8.50;;;27.80;58.70;;;;;;5050997;28;20475;-74
2021/09/14 12:45:26;;;;;;;12.63;7.85;;;27.80;59.30;;;;;;5051564;28;20025;-74
2021/09/14 12:47:52;;;;;;;14.32;8.95;;;27.80;58.80;;;;;;5051281;28;20490;-74
2021/09/14 12:50:17;;;;;;;21.67;9.75;;;27.80;57.80;;;;;;5051548;28;20029;-74
2021/09/14 12:52:43;;;;;;;14.38;9.02;;;27.80;58.30;;;;;;5050189;28;20063;-74
2021/09/14 12:55:09;;;;;;;10.80;7.75;;;27.80;57.00;;;;;;5051487;28;20017;-74
2021/09/14 12:57:36;;;;;;;16.05;8.55;;;27.80;56.90;;;;;;5051413;28;20104;-73
2021/09/14 13:00:04;;;;;;;15.20;8.23;;;27.90;56.40;;;;;;5052234;28;20021;-73
2021/09/14 13:02:30;;;;;;;18.70;8.52;;;27.90;56.80;;;;;;5052693;28;20021;-73
2021/09/14 13:04:56;;;;;;;16.42;8.15;;;28.00;56.50;;;;;;5036891;28;20090;-73
2021/09/14 13:07:22;;;;;;;9.57;7.60;;;28.00;55.80;;;;;;5032737;28;20022;-74
2021/09/14 13:09:47;;;;;;;15.13;8.82;;;28.00;55.60;;;;;;5032626;28;20028;-74
2021/09/14 13:12:19;;;;;;;14.52;8.50;;;28.10;55.10;;;;;;5032727;28;20487;-74
2021/09/14 13:17:31;;;;;;;10.55;7.43;;;28.20;55.40;;;;;;5034818;28;20051;-74
2021/09/14 13:19:57;;;;;;;13.88;8.18;;;28.20;54.30;;;;;;5036771;28;20018;-73
2021/09/14 13:22:23;;;;;;;13.68;7.28;;;28.20;54.00;;;;;;5036772;28;20032;-73
2021/09/14 13:24:49;;;;;;;8.02;7.15;;;28.20;54.90;;;;;;5036636;28;20014;-73
2021/09/14 13:27:14;;;;;;;14.65;7.25;;;28.40;54.00;;;;;;5035279;28;20485;-74
2021/09/14 13:29:40;;;;;;;20.23;7.93;;;28.30;53.80;;;;;;5036388;28;20036;-74
2021/09/14 13:32:06;;;;;;;8.38;7.00;;;28.40;54.30;;;;;;5036336;28;20046;-74
2021/09/14 13:34:32;;;;;;;10.40;8.10;;;28.40;53.40;;;;;;5036369;28;20030;-74
2021/09/14 13:36:57;;;;;;;15.88;8.18;;;28.40;54.50;;;;;;5036428;28;20109;-74